Time;durP1;ratioP1;P1;durP2;ratioP2;P2;SDS_P1;SDS_P2;PMS_P1;PMS_P2;Temp;Humidity;BMP_temperature;BMP_pressure;BME280_temperature;BME280_humidity;BME280_pressure;Samples;Min_cycle;Max_cycle;Signal;HPM_P1;HPM_P2
2021/07/18 00:01:03;;;;;;;3.38;2.10;;;;;;;17.76;nan;100996.50;4980670;28;20045;-86
2021/07/18 00:03:30;;;;;;;4.30;1.80;;;;;;;17.78;nan;100988.28;4992298;28;20038;-86
2021/07/18 00:05:57;;;;;;;4.03;1.90;;;;;;;17.90;nan;101002.88;4977689;28;20035;-85
2021/07/18 00:08:23;;;;;;;2.28;1.45;;;;;;;17.93;nan;100994.47;4971397;28;20061;-86
2021/07/18 00:10:51;;;;;;;3.60;1.60;;;;;;;17.98;nan;100993.91;4970927;28;20090;-85
2021/07/18 00:13:17;;;;;;;3.38;1.50;;;;;;;17.94;nan;100990.75;4977983;28;20030;-86
2021/07/18 00:15:43;;;;;;;3.33;1.60;;;;;;;17.98;nan;100986.69;4966912;28;20082;-85
2021/07/18 00:18:08;;;;;;;2.85;1.60;;;;;;;18.01;nan;100988.97;4990374;28;20098;-86
2021/07/18 00:20:34;;;;;;;3.10;1.77;;;;;;;17.97;nan;100994.91;4973285;28;20518;-86
2021/07/18 00:23:00;;;;;;;5.05;1.45;;;;;;;17.92;nan;100989.28;4975557;28;20037;-86
2021/07/18 00:25:26;;;;;;;2.10;1.38;;;;;;;17.89;nan;100992.34;4964644;28;20046;-85
2021/07/18 00:27:54;;;;;;;3.72;1.63;;;;;;;17.78;nan;100989.13;4986307;28;20026;-86
2021/07/18 00:30:22;;;;;;;3.95;1.58;;;;;;;17.71;nan;100987.38;4972052;28;20411;-86
2021/07/18 00:32:48;;;;;;;2.97;1.50;;;;;;;17.69;nan;100987.56;4964181;28;20038;-86
2021/07/18 00:35:14;;;;;;;2.45;1.20;;;;;;;17.70;nan;100991.06;4987035;28;20023;-86
2021/07/18 00:37:41;;;;;;;1.63;1.10;;;;;;;17.72;nan;100991.72;4990593;28;20488;-85
2021/07/18 00:40:09;;;;;;;2.50;1.35;;;;;;;17.73;nan;101001.38;4961928;28;20134;-86
2021/07/18 00:42:36;;;;;;;1.92;1.15;;;;;;;17.71;nan;100995.38;4988240;28;20039;-85
2021/07/18 00:45:04;;;;;;;2.03;1.30;;;;;;;17.63;nan;100997.16;4984353;28;20035;-86
2021/07/18 00:47:31;;;;;;;2.45;1.50;;;;;;;17.55;nan;101005.28;4980512;28;20030;-86
2021/07/18 00:49:57;;;;;;;2.63;1.55;;;;;;;17.46;nan;100992.22;4959888;28;20046;-86
2021/07/18 00:52:24;;;;;;;2.00;1.42;;;;;;;17.40;nan;100996.47;4971963;28;20043;-84
2021/07/18 00:54:51;;;;;;;3.50;1.67;;;;;;;17.33;nan;100993.69;4974658;28;20110;-85
2021/07/18 00:57:18;;;;;;;2.60;1.58;;;;;;;17.29;nan;100989.72;4981924;28;20038;-85
2021/07/18 00:59:44;;;;;;;3.38;1.58;;;;;;;17.24;nan;100993.97;4972758;28;20121;-86
2021/07/18 01:02:10;;;;;;;4.38;1.90;;;;;;;17.21;nan;100995.16;4989612;28;20114;-85
2021/07/18 01:04:36;;;;;;;2.80;1.50;;;;;;;17.23;nan;100998.47;4965577;28;20045;-85
2021/07/18 01:07:02;;;;;;;2.13;1.30;;;;;;;17.26;nan;100994.63;4961839;28;20046;-85
2021/07/18 01:09:32;;;;;;;2.53;1.20;;;;;;;17.29;nan;100996.91;4986077;28;20030;-86
2021/07/18 01:11:59;;;;;;;2.33;1.23;;;;;;;17.27;nan;100998.94;4980843;28;20035;-86
2021/07/18 01:14:28;;;;;;;2.15;1.20;;;;;;;17.23;nan;101005.66;4970528;28;20431;-84
2021/07/18 01:16:59;;;;;;;1.85;1.35;;;;;;;17.13;nan;101004.09;4983504;28;20138;-85
2021/07/18 01:19:26;;;;;;;2.22;1.30;;;;;;;17.03;nan;100997.38;4989511;28;20027;-86
2021/07/18 01:22:01;;;;;;;2.42;1.33;;;;;;;16.93;nan;100992.28;4971424;28;20556;-85
2021/07/18 01:24:34;;;;;;;2.55;1.50;;;;;;;16.85;nan;100997.69;4989455;28;20057;-85
2021/07/18 01:27:05;;;;;;;1.90;1.25;;;;;;;16.77;nan;100993.22;4975588;28;20034;-85
2021/07/18 01:29:34;;;;;;;2.28;1.40;;;;;;;16.70;nan;100990.44;4975175;28;20117;-86
2021/07/18 01:32:01;;;;;;;2.15;1.40;;;;;;;16.65;nan;100987.50;4967781;28;20030;-85
2021/07/18 01:34:28;;;;;;;3.03;1.40;;;;;;;16.62;nan;100987.84;4958575;28;20034;-84
2021/07/18 01:36:55;;;;;;;2.20;1.30;;;;;;;16.55;nan;100987.75;4977289;28;20488;-85
2021/07/18 01:39:22;;;;;;;3.33;1.77;;;;;;;16.48;nan;100983.31;4976718;28;20432;-85
2021/07/18 01:41:53;;;;;;;3.90;2.00;;;;;;;16.40;nan;100983.34;4976329;28;20026;-85
2021/07/18 01:44:19;;;;;;;4.40;1.65;;;;;;;16.36;nan;100988.22;4986350;28;20038;-85
2021/07/18 01:46:46;;;;;;;4.65;1.83;;;;;;;16.37;nan;100987.22;4966007;28;20162;-85
2021/07/18 01:49:12;;;;;;;4.47;1.70;;;;;;;16.44;nan;100996.16;4992933;28;20125;-85
2021/07/18 01:51:39;;;;;;;4.47;1.80;;;;;;;16.48;nan;100992.13;4976930;28;20408;-85
2021/07/18 01:54:08;;;;;;;3.85;1.85;;;;;;;16.46;nan;100988.00;4990551;28;20031;-86
2021/07/18 01:56:34;;;;;;;2.20;1.40;;;;;;;16.46;nan;100986.13;4974925;28;20547;-85
2021/07/18 01:59:00;;;;;;;3.10;1.75;;;;;;;16.47;nan;100992.31;4998186;28;20038;-85
2021/07/18 02:01:28;;;;;;;4.43;1.95;;;;;;;16.48;nan;100996.66;4996824;28;20027;-85
2021/07/18 02:03:58;;;;;;;2.38;1.58;;;;;;;16.44;nan;100990.00;4980978;28;20045;-85
2021/07/18 02:06:26;;;;;;;3.35;2.00;;;;;;;16.41;nan;100985.84;4995240;28;20046;-85
2021/07/18 02:08:55;;;;;;;2.85;1.80;;;;;;;16.41;nan;100993.84;4989491;28;20064;-85
2021/07/18 02:11:21;;;;;;;3.17;1.85;;;;;;;16.35;nan;100992.75;4979846;28;20571;-85
2021/07/18 02:13:54;;;;;;;2.58;1.80;;;;;;;16.31;nan;100987.94;4988955;28;20038;-84
2021/07/18 02:16:22;;;;;;;5.10;1.70;;;;;;;16.27;nan;100987.44;4964133;28;20197;-85
2021/07/18 02:18:51;;;;;;;5.03;2.00;;;;;;;16.23;nan;100987.97;4971802;28;20492;-85
2021/07/18 02:21:20;;;;;;;2.97;1.70;;;;;;;16.19;nan;100994.69;4981247;28;20106;-85
2021/07/18 02:23:49;;;;;;;4.82;2.05;;;;;;;16.19;nan;100987.53;4968471;28;20112;-85
2021/07/18 02:26:18;;;;;;;2.90;1.80;;;;;;;16.22;nan;100984.50;4967434;28;20126;-85
2021/07/18 02:28:44;;;;;;;3.35;2.00;;;;;;;16.19;nan;100984.03;4991178;28;20500;-85
2021/07/18 02:31:11;;;;;;;3.42;1.88;;;;;;;16.21;nan;100981.97;4984814;28;20038;-86
2021/07/18 02:33:40;;;;;;;2.55;1.58;;;;;;;16.18;nan;100982.34;4982203;28;20301;-86
2021/07/18 02:36:06;;;;;;;2.70;1.70;;;;;;;16.18;nan;100985.84;5004109;28;20038;-86
2021/07/18 02:38:32;;;;;;;2.55;1.55;;;;;;;16.18;nan;100987.69;4984615;28;20069;-86
2021/07/18 02:40:59;;;;;;;2.20;1.50;;;;;;;16.16;nan;100989.69;4993411;28;20026;-86
2021/07/18 02:43:24;;;;;;;3.30;1.45;;;;;;;16.15;nan;100991.53;5008871;28;20064;-86
2021/07/18 02:45:50;;;;;;;3.20;1.48;;;;;;;16.10;nan;100988.56;5007144;28;20042;-86
2021/07/18 02:48:16;;;;;;;3.83;1.60;;;;;;;16.06;nan;100987.25;4984015;28;20031;-86
2021/07/18 02:50:43;;;;;;;4.40;1.70;;;;;;;16.03;nan;100990.28;4969748;28;20401;-86
2021/07/18 02:53:08;;;;;;;3.10;1.90;;;;;;;15.98;nan;100987.31;4991684;28;20182;-86
2021/07/18 02:55:34;;;;;;;4.25;2.13;;;;;;;15.95;nan;100988.50;4981367;28;20204;-85
2021/07/18 02:58:01;;;;;;;37.28;4.25;;;;;;;15.89;nan;100990.03;4999187;28;20038;-85
2021/07/18 03:00:27;;;;;;;3.28;1.70;;;;;;;15.83;nan;100993.41;4973452;28;20046;-85
2021/07/18 03:02:53;;;;;;;6.00;1.90;;;;;;;15.83;nan;100996.06;4973146;28;20101;-85
2021/07/18 03:05:20;;;;;;;2.72;1.67;;;;;;;15.85;nan;100993.22;4999257;28;20038;-85
2021/07/18 03:07:47;;;;;;;4.22;1.70;;;;;;;15.81;nan;100992.75;4992489;28;20400;-86
2021/07/18 03:10:15;;;;;;;2.97;1.60;;;;;;;15.80;nan;100993.75;4981818;28;20090;-86
2021/07/18 03:12:42;;;;;;;2.63;1.70;;;;;;;15.82;nan;100993.56;4979705;28;20127;-86
2021/07/18 03:15:13;;;;;;;3.42;1.90;;;;;;;15.86;nan;100998.38;4979120;28;20030;-85
2021/07/18 03:17:40;;;;;;;3.13;1.77;;;;;;;15.85;nan;100999.41;4964855;28;20053;-85
2021/07/18 03:20:09;;;;;;;2.75;1.60;;;;;;;15.84;nan;101004.91;4963289;28;20157;-85
2021/07/18 03:22:36;;;;;;;2.40;1.60;;;;;;;15.78;nan;101013.56;4996397;28;20043;-85
2021/07/18 03:25:06;;;;;;;3.55;1.80;;;;;;;15.72;nan;101009.78;4974885;28;20030;-85
2021/07/18 03:27:33;;;;;;;2.55;1.50;;;;;;;15.68;nan;101003.94;4960908;28;20046;-85
2021/07/18 03:30:00;;;;;;;2.50;1.50;;;;;;;15.63;nan;101013.44;4993110;28;20138;-86
2021/07/18 03:32:26;;;;;;;2.13;1.50;;;;;;;15.58;nan;101018.47;4975041;28;20038;-85
2021/07/18 03:34:54;;;;;;;2.60;1.70;;;;;;;15.49;nan;101015.84;4958852;28;20081;-85
2021/07/18 03:37:20;;;;;;;3.63;1.77;;;;;;;15.41;nan;101005.19;4973547;28;20495;-86
2021/07/18 03:39:46;;;;;;;2.75;1.60;;;;;;;15.44;nan;101009.34;4969522;28;20101;-85
2021/07/18 03:42:12;;;;;;;3.13;1.67;;;;;;;15.44;nan;101010.19;4968590;28;20030;-85
2021/07/18 03:44:40;;;;;;;3.38;1.80;;;;;;;15.36;nan;101010.22;4960850;28;20041;-85
2021/07/18 03:47:06;;;;;;;2.83;1.50;;;;;;;15.35;nan;101007.72;4973963;28;20030;-85
2021/07/18 03:49:35;;;;;;;4.20;1.70;;;;;;;15.28;nan;101005.75;4962388;28;20121;-85
2021/07/18 03:52:01;;;;;;;2.95;1.52;;;;;;;15.28;nan;101002.25;4973372;28;20031;-85
2021/07/18 03:54:26;;;;;;;2.75;1.60;;;;;;;15.27;nan;100998.75;4965281;28;20058;-85
2021/07/18 03:56:52;;;;;;;3.78;1.90;;;;;;;15.29;nan;101002.06;4980637;28;20484;-85
2021/07/18 03:59:17;;;;;;;4.43;2.08;;;;;;;15.28;nan;101002.25;4994895;28;20121;-85
2021/07/18 04:01:42;;;;;;;2.70;1.80;;;;;;;15.27;nan;100997.91;4990485;28;20062;-85
2021/07/18 04:04:07;;;;;;;3.10;1.77;;;;;;;15.25;nan;101002.59;4975690;28;20113;-85
2021/07/18 04:06:33;;;;;;;2.50;1.90;;;;;;;15.27;nan;101009.41;4976969;28;20042;-85
2021/07/18 04:08:59;;;;;;;3.03;2.00;;;;;;;15.26;nan;101006.94;4995075;28;20428;-85
2021/07/18 04:11:24;;;;;;;3.28;1.85;;;;;;;15.27;nan;101012.06;4965619;28;20113;-85
2021/07/18 04:13:49;;;;;;;2.47;1.70;;;;;;;15.29;nan;101006.56;4984555;28;20512;-85
2021/07/18 04:16:14;;;;;;;2.67;1.67;;;;;;;15.33;nan;101010.56;4958171;28;20057;-85
2021/07/18 04:18:40;;;;;;;4.82;1.67;;;;;;;15.35;nan;101007.72;4987992;28;20102;-85
2021/07/18 04:21:05;;;;;;;3.03;1.65;;;;;;;15.34;nan;101003.41;4992908;28;20042;-85
2021/07/18 04:23:31;;;;;;;4.70;1.70;;;;;;;15.36;nan;101012.06;4977308;28;20035;-84
2021/07/18 04:25:56;;;;;;;4.65;1.80;;;;;;;15.38;nan;101012.72;4993993;28;20046;-85
2021/07/18 04:28:22;;;;;;;6.38;1.80;;;;;;;15.40;nan;101013.38;4995187;28;20038;-85
2021/07/18 04:30:47;;;;;;;3.90;1.40;;;;;;;15.45;nan;101016.38;4995066;28;20051;-85
2021/07/18 04:33:12;;;;;;;3.60;1.83;;;;;;;15.48;nan;101019.50;4988381;28;20042;-85
2021/07/18 04:35:38;;;;;;;2.22;1.30;;;;;;;15.53;nan;101026.16;4987642;28;20045;-85
2021/07/18 04:38:04;;;;;;;2.28;1.40;;;;;;;15.60;nan;101016.47;4978470;28;20038;-85
2021/07/18 04:40:31;;;;;;;2.00;1.30;;;;;;;15.65;nan;101033.59;4976800;28;20113;-85
2021/07/18 04:42:56;;;;;;;2.60;1.42;;;;;;;15.64;nan;101031.13;4976790;28;20030;-85
2021/07/18 04:45:22;;;;;;;4.50;1.50;;;;;;;15.64;nan;101036.47;4995229;28;20041;-85
2021/07/18 04:47:49;;;;;;;2.45;1.40;;;;;;;15.58;nan;101034.47;4983653;28;20042;-85
2021/07/18 04:50:17;;;;;;;2.67;1.48;;;;;;;15.58;nan;101037.13;4989280;28;20094;-85
2021/07/18 04:52:42;;;;;;;3.25;1.50;;;;;;;15.62;nan;101039.28;4978992;28;20416;-84
2021/07/18 04:55:09;;;;;;;2.10;1.40;;;;;;;15.65;nan;101038.09;4991208;28;20037;-85
2021/07/18 04:57:35;;;;;;;1.80;1.45;;;;;;;15.69;nan;101036.78;4968534;28;20030;-85
2021/07/18 05:00:04;;;;;;;2.33;1.27;;;;;;;15.75;nan;101045.94;4983944;28;20511;-85
2021/07/18 05:02:29;;;;;;;2.60;1.25;;;;;;;15.80;nan;101040.91;4966709;28;20045;-85
2021/07/18 05:04:55;;;;;;;2.80;1.40;;;;;;;15.85;nan;101043.88;4967020;28;20039;-85
2021/07/18 05:07:20;;;;;;;3.65;1.30;;;;;;;15.91;nan;101048.53;4958652;28;20031;-85
2021/07/18 05:09:45;;;;;;;2.78;1.08;;;;;;;15.99;nan;101047.66;4988131;28;20031;-85
2021/07/18 05:12:11;;;;;;;2.63;1.10;;;;;;;16.07;nan;101050.28;4970636;28;20488;-85
2021/07/18 05:14:36;;;;;;;1.88;1.23;;;;;;;16.14;nan;101056.59;4971796;28;20043;-85
2021/07/18 05:17:01;;;;;;;2.78;1.40;;;;;;;16.20;nan;101053.22;4971254;28;20073;-85
2021/07/18 05:19:27;;;;;;;2.40;1.70;;;;;;;16.27;nan;101059.50;4979146;28;20046;-85
2021/07/18 05:21:56;;;;;;;3.63;1.60;;;;;;;16.32;nan;101053.63;4977139;28;20023;-84
2021/07/18 05:24:22;;;;;;;2.33;1.70;;;;;;;16.42;nan;101051.59;4976812;28;20108;-85
2021/07/18 05:26:47;;;;;;;5.78;1.77;;;;;;;16.51;nan;101052.34;4997579;28;20034;-85
2021/07/18 05:29:12;;;;;;;4.22;1.90;;;;;;;16.60;nan;101047.78;4983574;28;20034;-85
2021/07/18 05:31:37;;;;;;;6.32;1.75;;;;;;;16.71;nan;101042.03;4996608;28;20047;-85
2021/07/18 05:34:03;;;;;;;3.55;1.50;;;;;;;16.76;nan;101045.81;4985238;28;20027;-85
2021/07/18 05:36:28;;;;;;;2.33;1.67;;;;;;;16.93;nan;101043.84;4975621;28;20038;-85
2021/07/18 05:38:53;;;;;;;3.50;1.60;;;;;;;17.01;nan;101042.13;4978112;28;20432;-85
2021/07/18 05:41:19;;;;;;;2.20;1.52;;;;;;;17.08;nan;101049.22;4968999;28;20096;-85
2021/07/18 05:43:44;;;;;;;3.25;1.50;;;;;;;17.19;nan;101054.13;4968478;28;20031;-85
2021/07/18 05:46:09;;;;;;;3.70;1.58;;;;;;;17.29;nan;101053.88;4965453;28;20050;-85
2021/07/18 05:48:34;;;;;;;3.10;1.42;;;;;;;17.38;nan;101057.28;4978405;28;20034;-85
2021/07/18 05:51:00;;;;;;;2.90;1.65;;;;;;;17.59;nan;101052.03;4979349;28;20069;-85
2021/07/18 05:53:25;;;;;;;2.63;1.75;;;;;;;17.77;nan;101051.66;4989222;28;20042;-85
2021/07/18 05:55:50;;;;;;;4.25;1.70;;;;;;;18.16;nan;101057.69;4976412;28;20042;-85
2021/07/18 05:58:16;;;;;;;2.92;1.65;;;;;;;18.54;nan;101050.25;4995752;28;20038;-85
2021/07/18 06:00:41;;;;;;;2.90;1.30;;;;;;;18.99;nan;101060.78;4979899;28;20034;-85
2021/07/18 06:03:07;;;;;;;4.53;1.85;;;;;;;19.26;nan;101062.66;4992066;28;20114;-85
2021/07/18 06:05:35;;;;;;;3.05;1.70;;;;;;;19.41;nan;101067.09;4968868;28;20069;-85
2021/07/18 06:08:00;;;;;;;2.65;1.63;;;;;;;19.48;nan;101063.41;4961110;28;20031;-85
2021/07/18 06:10:26;;;;;;;3.40;1.50;;;;;;;19.71;nan;101062.31;4961917;28;20515;-84
2021/07/18 06:12:51;;;;;;;4.38;1.80;;;;;;;20.00;nan;101065.75;4971555;28;20118;-83
2021/07/18 06:15:16;;;;;;;1.95;1.38;;;;;;;20.20;nan;101069.34;4991224;28;20037;-86
2021/07/18 06:17:42;;;;;;;3.22;1.75;;;;;;;20.35;nan;101061.97;4982907;28;20042;-84
2021/07/18 06:20:08;;;;;;;2.78;1.50;;;;;;;20.46;nan;101073.94;4975568;28;20031;-86
2021/07/18 06:22:35;;;;;;;4.03;1.73;;;;;;;20.82;nan;101072.78;4977093;28;20112;-85
2021/07/18 06:25:02;;;;;;;3.83;1.65;;;;;;;21.07;nan;101061.41;4995842;28;20061;-85
2021/07/18 06:27:27;;;;;;;3.00;1.30;;;;;;;21.29;nan;101076.28;4982575;28;20205;-85
2021/07/18 06:29:52;;;;;;;3.58;1.55;;;;;;;21.49;nan;101062.00;4981090;28;20081;-85
2021/07/18 06:32:20;;;;;;;2.72;1.40;;;;;;;21.67;nan;101054.09;4972981;28;20035;-85
2021/07/18 06:34:46;;;;;;;5.13;1.60;;;;;;;21.94;nan;101052.09;4962799;28;20431;-84
2021/07/18 06:37:11;;;;;;;2.65;1.30;;;;;;;22.20;nan;101059.25;4984410;28;20034;-84
2021/07/18 06:39:36;;;;;;;3.20;1.50;;;;;;;22.43;nan;101056.03;4946422;28;20125;-85
2021/07/18 06:42:02;;;;;;;3.25;1.42;;;;;;;22.55;nan;101058.84;4978343;28;20030;-85
2021/07/18 06:44:27;;;;;;;2.75;1.20;;;;;;;22.68;nan;101049.81;4985087;28;20047;-85
2021/07/18 06:46:53;;;;;;;2.63;1.25;;;;;;;23.03;nan;101049.38;4976293;28;20023;-84
2021/07/18 06:49:18;;;;;;;2.22;1.20;;;;;;;23.45;nan;101058.47;4976921;28;20168;-85
2021/07/18 06:51:43;;;;;;;2.88;1.30;;;;;;;24.02;nan;101062.84;4977098;28;20061;-85
2021/07/18 06:54:09;;;;;;;1.95;1.10;;;;;;;24.13;nan;101062.06;4993326;28;20027;-85
2021/07/18 06:56:34;;;;;;;1.95;1.00;;;;;;;24.17;nan;101066.78;4979611;28;20046;-85
2021/07/18 06:59:00;;;;;;;2.42;1.10;;;;;;;24.22;nan;101071.50;4997109;28;20034;-85
2021/07/18 07:01:26;;;;;;;1.63;1.00;;;;;;;24.51;nan;101061.75;4980704;28;20053;-85
2021/07/18 07:03:51;;;;;;;2.42;1.27;;;;;;;24.45;nan;101067.22;4988159;28;20031;-85
2021/07/18 07:06:16;;;;;;;2.03;0.90;;;;;;;24.54;nan;101069.41;4966694;28;20034;-85
2021/07/18 07:08:42;;;;;;;2.28;1.13;;;;;;;24.50;nan;101062.81;4978526;28;20070;-85
2021/07/18 07:11:07;;;;;;;1.95;1.00;;;;;;;24.93;nan;101061.72;4975627;28;20032;-85
2021/07/18 07:13:32;;;;;;;3.40;0.98;;;;;;;25.36;nan;101070.56;4974358;28;20037;-85
2021/07/18 07:15:58;;;;;;;1.92;1.10;;;;;;;25.66;nan;101066.88;4973368;28;20399;-85
2021/07/18 07:18:24;;;;;;;1.63;0.77;;;;;;;25.91;nan;101058.47;4969126;28;20050;-85
2021/07/18 07:20:49;;;;;;;2.00;1.23;;;;;;;25.75;nan;101060.03;4978551;28;20528;-85
2021/07/18 07:23:14;;;;;;;1.60;0.82;;;;;;;26.13;nan;101059.44;4978514;28;20094;-85
2021/07/18 07:25:40;;;;;;;3.00;1.00;;;;;;;26.43;nan;101067.31;4995145;28;20070;-85
2021/07/18 07:28:05;;;;;;;2.85;1.05;;;;;;;26.22;nan;101068.03;4961348;28;20061;-86
2021/07/18 07:30:31;;;;;;;2.08;0.93;;;;;;;26.06;nan;101067.72;4979595;28;20038;-85
2021/07/18 07:32:56;;;;;;;2.72;0.88;;;;;;;26.41;nan;101076.75;4964701;28;20047;-85
2021/07/18 07:35:22;;;;;;;2.83;1.10;;;;;;;26.52;nan;101072.34;4994299;28;20022;-86
2021/07/18 07:37:47;;;;;;;1.60;0.90;;;;;;;26.56;nan;101073.53;4942186;28;1067156;-86
2021/07/18 07:40:17;;;;;;;3.03;1.02;;;;;;;26.51;nan;101071.53;4983419;28;20078;-86
2021/07/18 07:42:43;;;;;;;2.30;1.17;;;;;;;27.00;nan;101070.97;4980572;28;20035;-85
2021/07/18 07:45:10;;;;;;;1.77;0.90;;;;;;;26.82;nan;101067.47;4965084;28;20121;-85
2021/07/18 07:47:37;;;;;;;1.75;0.90;;;;;;;27.04;nan;101067.53;4992755;28;20081;-86
2021/07/18 07:50:07;;;;;;;2.20;0.80;;;;;;;27.20;nan;101068.63;4995521;28;20125;-86
2021/07/18 07:52:33;;;;;;;2.55;1.10;;;;;;;27.17;nan;101069.06;4977272;28;20034;-86
2021/07/18 07:54:58;;;;;;;2.05;0.70;;;;;;;27.39;nan;101071.88;4985394;28;20582;-86
2021/07/18 07:57:24;;;;;;;1.67;0.90;;;;;;;27.47;nan;101067.88;4970587;28;20049;-86
2021/07/18 07:59:50;;;;;;;2.30;0.90;;;;;;;27.75;nan;101072.34;4975387;28;20034;-85
2021/07/18 08:02:15;;;;;;;2.30;1.00;;;;;;;27.75;nan;101067.72;4977644;28;20027;-85
2021/07/18 08:04:41;;;;;;;1.48;0.80;;;;;;;28.12;nan;101067.06;4966146;28;20035;-86
2021/07/18 08:07:06;;;;;;;2.80;0.93;;;;;;;28.69;nan;101075.78;4968320;28;20039;-86
2021/07/18 08:09:31;;;;;;;1.88;0.85;;;;;;;28.80;nan;101072.88;4985907;28;20038;-86
2021/07/18 08:11:57;;;;;;;1.35;0.77;;;;;;;29.14;nan;101069.06;4975914;28;20062;-86
2021/07/18 08:14:24;;;;;;;2.17;0.90;;;;;;;29.29;nan;101065.63;4991452;28;20038;-86
2021/07/18 08:16:50;;;;;;;2.55;1.00;;;;;;;28.87;nan;101067.22;4971401;28;20042;-86
2021/07/18 08:19:15;;;;;;;2.58;1.08;;;;;;;29.38;nan;101059.41;4964124;28;20100;-86
2021/07/18 08:21:41;;;;;;;1.85;0.90;;;;;;;29.73;nan;101063.41;4976282;28;20169;-86
2021/07/18 08:24:07;;;;;;;1.67;0.80;;;;;;;30.09;nan;101063.53;4985925;28;20448;-87
2021/07/18 08:26:32;;;;;;;2.40;1.00;;;;;;;29.82;nan;101064.53;4981040;28;20039;-86
2021/07/18 08:28:57;;;;;;;1.40;0.80;;;;;;;29.59;nan;101057.59;4992765;28;20113;-86
2021/07/18 08:31:23;;;;;;;1.63;0.85;;;;;;;30.36;nan;101051.59;4983618;28;20030;-85
2021/07/18 08:33:48;;;;;;;2.28;1.00;;;;;;;30.57;nan;101055.97;4974697;28;20039;-87
2021/07/18 08:36:13;;;;;;;0.80;0.60;;;;;;;30.48;nan;101047.47;4989475;28;20426;-85
2021/07/18 08:38:39;;;;;;;;;;;;;;;30.86;nan;101050.78;4970171;28;20412;-86
2021/07/18 08:41:04;;;;;;;;;;;;;;;31.07;nan;101058.94;4963744;28;19918;-86
2021/07/18 08:43:31;;;;;;;1.67;0.80;;;;;;;31.49;nan;101057.78;4974921;28;19918;-85
2021/07/18 08:45:57;;;;;;;2.00;0.90;;;;;;;31.28;nan;101051.53;4971245;28;20282;-86
2021/07/18 08:48:22;;;;;;;3.60;1.02;;;;;;;31.42;nan;101052.59;4983006;28;20103;-86
2021/07/18 08:50:48;;;;;;;2.60;1.10;;;;;;;31.34;nan;101061.31;4966846;28;20055;-86
2021/07/18 08:53:14;;;;;;;1.88;1.08;;;;;;;31.71;nan;101050.00;4975144;28;20039;-86
2021/07/18 08:55:40;;;;;;;2.05;1.02;;;;;;;31.51;nan;101040.00;4985174;28;20066;-86
2021/07/18 08:58:06;;;;;;;1.67;0.98;;;;;;;31.96;nan;101040.06;4987430;28;20038;-86
2021/07/18 09:00:31;;;;;;;2.22;1.00;;;;;;;32.30;nan;101048.31;4971762;28;20556;-86
2021/07/18 09:02:57;;;;;;;1.27;0.80;;;;;;;32.36;nan;101047.16;4971294;28;20026;-86
2021/07/18 09:05:22;;;;;;;3.05;1.10;;;;;;;32.58;nan;101046.78;4975547;28;20034;-86
2021/07/18 09:07:52;;;;;;;2.72;1.20;;;;;;;32.78;nan;101051.22;4990203;28;20038;-86
2021/07/18 09:10:24;;;;;;;2.65;1.05;;;;;;;32.82;nan;101042.44;4997255;28;20026;-86
2021/07/18 09:13:09;;;;;;;2.83;1.15;;;;;;;33.13;nan;101041.06;4987829;28;20050;-85
2021/07/18 09:15:54;;;;;;;2.60;1.00;;;;;;;32.11;nan;101033.69;4969566;28;20058;-86
2021/07/18 09:18:23;;;;;;;4.45;1.00;;;;;;;31.69;nan;101045.94;4989058;28;20532;-86
2021/07/18 09:20:50;;;;;;;1.92;0.82;;;;;;;31.62;nan;101037.22;4974791;28;20122;-86
2021/07/18 09:23:18;;;;;;;2.20;0.98;;;;;;;31.17;nan;101031.59;4975930;28;20050;-86
2021/07/18 09:25:44;;;;;;;1.58;0.80;;;;;;;30.99;nan;101026.75;4981135;28;20031;-86
2021/07/18 09:28:18;;;;;;;2.17;1.00;;;;;;;30.92;nan;101034.41;4961230;28;20038;-86
2021/07/18 09:30:45;;;;;;;2.00;0.90;;;;;;;30.58;nan;101030.31;4992304;28;20125;-86
2021/07/18 09:33:22;;;;;;;2.67;0.88;;;;;;;30.47;nan;101031.41;4983327;28;20031;-86
2021/07/18 09:35:48;;;;;;;1.55;0.90;;;;;;;30.21;nan;100949.50;4993173;28;20058;-86
2021/07/18 09:38:26;;;;;;;2.58;1.20;;;;;;;30.11;nan;101019.63;4976878;28;20500;-86
2021/07/18 09:40:58;;;;;;;2.38;1.23;;;;;;;30.24;nan;101019.88;4971565;28;20088;-86
2021/07/18 09:43:28;;;;;;;2.75;1.13;;;;;;;30.04;nan;101014.41;4985887;28;20051;-86
2021/07/18 09:46:06;;;;;;;2.33;1.02;;;;;;;29.94;nan;101017.09;4986713;28;20038;-86
2021/07/18 09:48:39;;;;;;;2.20;0.82;;;;;;;29.78;nan;101019.81;4969384;28;20039;-86
2021/07/18 09:51:13;;;;;;;2.95;1.10;;;;;;;29.59;nan;101013.19;4964256;28;20050;-86
2021/07/18 09:53:40;;;;;;;2.88;1.00;;;;;;;29.94;nan;101009.78;4995777;28;20045;-85
2021/07/18 09:56:09;;;;;;;;;;;;;;;29.85;nan;101003.19;4991617;28;20031;-86
2021/07/18 09:58:56;;;;;;;2.20;1.00;;;;;;;29.59;nan;101007.72;4986956;28;19914;-85
2021/07/18 10:01:22;;;;;;;1.95;1.10;;;;;;;29.81;nan;101000.19;4991996;28;20027;-85
2021/07/18 10:03:49;;;;;;;2.53;1.10;;;;;;;29.52;nan;101007.16;4975155;28;20110;-85
2021/07/18 10:06:19;;;;;;;2.67;1.15;;;;;;;29.26;nan;101006.22;4983581;28;20386;-85
2021/07/18 10:08:49;;;;;;;1.85;0.98;;;;;;;29.27;nan;101005.13;4996405;28;20475;-85
2021/07/18 10:11:17;;;;;;;3.17;1.27;;;;;;;28.97;nan;101001.97;4990893;28;20033;-85
2021/07/18 10:13:44;;;;;;;3.47;1.10;;;;;;;28.84;nan;100994.28;4964519;28;20038;-85
2021/07/18 10:16:11;;;;;;;2.00;1.13;;;;;;;28.42;nan;100991.47;4976603;28;20520;-85
2021/07/18 10:18:41;;;;;;;1.52;1.00;;;;;;;28.25;nan;100986.16;4991029;28;20065;-85
2021/07/18 10:21:08;;;;;;;1.93;0.97;;;;;;;28.57;nan;100991.63;4997697;28;20038;-85
2021/07/18 10:23:35;;;;;;;2.75;1.30;;;;;;;28.65;nan;100982.13;4995902;28;20035;-85
2021/07/18 10:26:02;;;;;;;3.17;1.60;;;;;;;28.52;nan;100986.13;4984601;28;20133;-84
2021/07/18 10:28:27;;;;;;;2.83;1.33;;;;;;;28.40;nan;100986.28;4961981;28;20057;-85
2021/07/18 10:31:01;;;;;;;3.45;1.40;;;;;;;27.90;nan;100980.13;4990197;28;20035;-85
2021/07/18 10:33:28;;;;;;;2.13;1.23;;;;;;;27.90;nan;100973.88;4961461;28;20038;-85
2021/07/18 10:35:55;;;;;;;4.50;1.65;;;;;;;27.73;nan;100973.94;4975076;28;20034;-85
2021/07/18 10:38:22;;;;;;;2.47;1.40;;;;;;;27.64;nan;100972.75;4993248;28;20041;-84
2021/07/18 10:40:53;;;;;;;2.97;1.42;;;;;;;27.72;nan;100970.41;4965046;28;20468;-85
2021/07/18 10:43:37;;;;;;;;;;;;;;;27.32;nan;100966.13;4991814;28;20057;-85
2021/07/18 10:46:07;;;;;;;2.28;1.35;;;;;;;27.36;nan;100968.34;4991927;28;20278;-84
2021/07/18 10:48:47;;;;;;;2.67;1.50;;;;;;;27.47;nan;100965.50;4996146;28;20100;-84
2021/07/18 10:51:15;;;;;;;2.63;1.38;;;;;;;27.47;nan;100968.22;4977732;28;20044;-84
2021/07/18 10:53:40;;;;;;;2.08;1.40;;;;;;;27.37;nan;100965.38;4979515;28;20042;-84
2021/07/18 10:56:07;;;;;;;3.25;1.70;;;;;;;27.35;nan;100953.13;4998096;28;20069;-84
2021/07/18 10:58:38;;;;;;;4.70;1.80;;;;;;;27.45;nan;100961.38;4974432;28;20049;-84
2021/07/18 11:01:31;;;;;;;2.83;1.63;;;;;;;27.54;nan;100965.28;4997315;28;20038;-84
2021/07/18 11:03:58;;;;;;;3.25;1.70;;;;;;;27.68;nan;100960.28;4973809;28;20097;-85
2021/07/18 11:06:30;;;;;;;4.30;1.85;;;;;;;27.56;nan;100954.19;4974701;28;20035;-84
2021/07/18 11:09:22;;;;;;;3.15;1.83;;;;;;;27.56;nan;100957.72;4999718;28;20492;-84
2021/07/18 11:11:50;;;;;;;3.45;1.80;;;;;;;27.66;nan;100951.56;4971936;28;20527;-83
2021/07/18 11:14:22;;;;;;;5.20;2.03;;;;;;;27.70;nan;100956.25;4972297;28;20061;-84
2021/07/18 11:16:50;;;;;;;3.65;2.00;;;;;;;27.47;nan;100956.53;4984186;28;20036;-85
2021/07/18 11:19:34;;;;;;;3.05;1.80;;;;;;;27.61;nan;100957.78;5005073;28;20046;-85
2021/07/18 11:22:00;;;;;;;2.65;1.92;;;;;;;27.74;nan;100956.53;4992417;28;20034;-85
2021/07/18 11:24:47;;;;;;;4.05;2.03;;;;;;;27.71;nan;100966.03;4991754;28;20837;-86
2021/07/18 11:27:26;;;;;;;3.15;2.03;;;;;;;27.92;nan;100958.94;4998540;28;20110;-85
2021/07/18 11:29:53;;;;;;;4.50;2.10;;;;;;;27.91;nan;100946.44;4994109;28;20138;-85
2021/07/18 11:32:27;;;;;;;4.25;1.88;;;;;;;28.03;nan;100943.56;4990944;28;20408;-85
2021/07/18 11:34:55;;;;;;;4.03;2.20;;;;;;;27.69;nan;100938.28;4968377;28;20483;-85
2021/07/18 11:37:21;;;;;;;;;;;;;;;27.56;nan;100936.00;5007475;28;20031;-85
2021/07/18 11:39:47;;;;;;;4.38;2.20;;;;;;;27.75;nan;100936.47;4994213;28;20208;-86
2021/07/18 11:42:15;;;;;;;2.90;1.98;;;;;;;27.78;nan;100940.56;4990583;28;20081;-86
2021/07/18 11:44:46;;;;;;;;;;;;;;;27.58;nan;100931.13;4981619;28;20134;-86